Tatum, NM (88267)

10:01 AM MST on February 14, 2016 (GMT -0700)
KNMTATUM1 | | Change Station
CLOSE
Current Station
Personal Weather Station
Location: Tatum, NM
Elevation: 4012 ft
Nearby Weather Stations

Elev 4012 ft 33.24 °N, 103.34 °W | Updated 2 seconds ago

Partly Cloudy
Partly Cloudy
51.4 °F
Feels Like 51.4 °F
N
17.8
Wind Variable Wind from NE
Gusts 24.2 mph

Today
High -- | Low -- °F
--% Chance of Precip.
Yesterday
High -- | Low -- °F
Precip. -- in
Pressure 30.07 in
Visibility 10.0 miles
Clouds Clear
Dew Point 24 °F
Humidity 34%
Rainfall 0.00 in
Snow Depth Not available.
6:38 AM 5:36 PM
Waxing Crescent, 43% visible
METAR KHOB 141650Z 03014KT 10SM SKC 10/M04 A3007
Pressure 30.07 in
Visibility 10.0 miles
Clouds Clear
Dew Point 24 °F
Humidity 34%
Rainfall 0.00 in
Snow Depth Not available.
6:38 AM 5:36 PM
Waxing Crescent, 43% visible
METAR KHOB 141650Z 03014KT 10SM SKC 10/M04 A3007

10-Day Weather Forecast

Almanac

Astronomy

Feb. 14, 2016 Rise Set
Actual Time
Civil Twilight
Nautical Twilight
Astronomical Twilight
Moon
Length of Visible Light
Length of Day
Tomorrow will be .
, % of the Moon is Illuminated

Today's Extremes

State Highs State Lows

Community

WunderPhotos

Upload Photos

1,892,849 photos uploaded!

WunderBlog® & News

Nearby

Air Quality

  Air Quality AQ Index Pollutant
Not available.

Snow Depth

Station Depth Elevation

Earthquake Activity

City Distance Mag. Time & Date
Minimum magnitude displayed is 2.5.

Coastal Water Temperatures

Place Temperature

Stations

Nearby Weather Stations

Station Location Temp. Windchill Dew Point Humidity Wind Precip. Elev Updated Type
                   

Watches & Warnings

There are currently no watches in effect.